Time;durP1;ratioP1;P1;durP2;ratioP2;P2;SDS_P1;SDS_P2;PMS_P1;PMS_P2;Temp;Humidity;BMP_temperature;BMP_pressure;BME280_temperature;BME280_humidity;BME280_pressure;Samples;Min_cycle;Max_cycle;Signal;HPM_P1;HPM_P2
2023/08/23 00:01:51;;;;;;;0.20;0.20;;;16.30;99.90;;;;;;5045514;28;20802;-76
2023/08/23 00:04:19;;;;;;;1.63;0.87;;;16.40;99.90;;;;;;5028496;28;20364;-67
2023/08/23 00:06:45;;;;;;;0.80;0.50;;;16.40;99.90;;;;;;5029226;28;20018;-67
2023/08/23 00:09:11;;;;;;;0.20;0.20;;;16.40;99.90;;;;;;5025005;28;20026;-67
2023/08/23 00:11:37;;;;;;;0.10;0.10;;;16.30;99.90;;;;;;5027175;28;20502;-67
2023/08/23 00:14:03;;;;;;;0.10;0.10;;;16.20;99.90;;;;;;5050066;28;20041;-67
2023/08/23 00:16:29;;;;;;;0.10;0.10;;;16.10;99.90;;;;;;5026765;28;20040;-67
2023/08/23 00:18:55;;;;;;;0.13;0.13;;;16.10;99.90;;;;;;5032566;28;20033;-67
2023/08/23 00:21:21;;;;;;;0.33;0.30;;;16.00;99.90;;;;;;5032563;28;20034;-67
2023/08/23 00:23:46;;;;;;;0.03;0.03;;;16.00;99.90;;;;;;5024103;28;20279;-67
2023/08/23 00:26:13;;;;;;;0.83;0.53;;;15.90;99.90;;;;;;5029934;28;20017;-75
2023/08/23 00:28:40;;;;;;;0.10;0.10;;;15.90;99.90;;;;;;5026147;28;20476;-68
2023/08/23 00:31:06;;;;;;;0.20;0.20;;;16.00;99.90;;;;;;5034049;28;20029;-68
2023/08/23 00:33:32;;;;;;;0.95;0.63;;;16.10;99.90;;;;;;5029473;28;20041;-68
2023/08/23 00:35:59;;;;;;;0.17;0.17;;;16.20;99.90;;;;;;5025385;28;20444;-68
2023/08/23 00:38:25;;;;;;;0.10;0.10;;;16.20;99.90;;;;;;5030700;28;20056;-67
2023/08/23 00:40:50;;;;;;;0.00;0.00;;;16.20;99.90;;;;;;5033165;28;20061;-75
2023/08/23 00:43:16;;;;;;;0.10;0.10;;;16.00;99.90;;;;;;5029889;28;20026;-68
2023/08/23 00:45:42;;;;;;;0.10;0.10;;;16.00;99.90;;;;;;5034269;28;20389;-67
2023/08/23 00:48:11;;;;;;;0.22;0.22;;;15.90;99.90;;;;;;5026269;28;20111;-67
2023/08/23 00:50:39;;;;;;;0.38;0.38;;;15.80;99.90;;;;;;5033674;28;20952;-67
2023/08/23 00:53:09;;;;;;;0.10;0.10;;;15.70;99.90;;;;;;5026204;28;20030;-67
2023/08/23 00:55:38;;;;;;;0.43;0.43;;;15.70;99.90;;;;;;5029681;28;20033;-68
2023/08/23 00:58:04;;;;;;;1.70;0.47;;;15.60;99.90;;;;;;5028308;28;20037;-67
2023/08/23 01:00:31;;;;;;;0.15;0.15;;;15.70;99.90;;;;;;5033081;28;20021;-67
2023/08/23 01:02:57;;;;;;;0.28;0.28;;;15.60;99.90;;;;;;5032272;28;20447;-68
2023/08/23 01:05:45;;;;;;;0.65;0.32;;;15.50;99.90;;;;;;5028306;28;20033;-72
2023/08/23 01:08:19;;;;;;;0.10;0.10;;;15.40;99.90;;;;;;5032054;28;20039;-67
2023/08/23 01:10:54;;;;;;;0.32;0.32;;;15.30;99.90;;;;;;5033868;28;20496;-68
2023/08/23 01:13:38;;;;;;;0.53;0.27;;;15.30;99.90;;;;;;5027709;28;20691;-68
2023/08/23 01:16:09;;;;;;;0.55;0.47;;;15.30;99.90;;;;;;5034121;28;20022;-68
2023/08/23 01:18:36;;;;;;;1.30;0.77;;;15.30;99.90;;;;;;5031827;28;20025;-67
2023/08/23 01:21:06;;;;;;;0.68;0.60;;;15.20;99.90;;;;;;5032719;28;20057;-67
2023/08/23 01:23:32;;;;;;;0.20;0.20;;;15.30;99.90;;;;;;5028015;28;20407;-75
2023/08/23 01:25:58;;;;;;;0.10;0.10;;;15.30;99.90;;;;;;5025759;28;20030;-67
2023/08/23 01:28:24;;;;;;;0.20;0.17;;;15.30;99.90;;;;;;5033850;28;20029;-67
2023/08/23 01:30:50;;;;;;;1.50;0.77;;;15.20;99.90;;;;;;5033606;28;20210;-67
2023/08/23 01:33:32;;;;;;;0.70;0.45;;;15.30;99.90;;;;;;5034427;28;20104;-68
2023/08/23 01:36:21;;;;;;;0.30;0.30;;;15.40;99.90;;;;;;5033830;28;20033;-67
2023/08/23 01:38:48;;;;;;;0.60;0.57;;;15.40;99.90;;;;;;5028603;28;20365;-67
2023/08/23 01:41:15;;;;;;;0.20;0.20;;;15.40;99.90;;;;;;5032596;28;20404;-67
2023/08/23 01:43:41;;;;;;;0.57;0.57;;;15.40;99.90;;;;;;5033404;28;20056;-67
2023/08/23 01:46:07;;;;;;;0.67;0.67;;;15.40;99.90;;;;;;5028792;28;20068;-67
2023/08/23 01:48:32;;;;;;;0.50;0.50;;;15.40;99.90;;;;;;5027663;28;20045;-67
2023/08/23 01:50:58;;;;;;;0.40;0.40;;;15.50;99.90;;;;;;5032756;28;20076;-67
2023/08/23 01:53:24;;;;;;;0.77;0.77;;;15.50;99.90;;;;;;5033023;28;20420;-68
2023/08/23 01:55:50;;;;;;;0.63;0.63;;;15.50;99.90;;;;;;5032423;28;20122;-67
2023/08/23 01:58:15;;;;;;;0.83;0.83;;;15.60;99.90;;;;;;5031121;28;20026;-67
2023/08/23 02:00:48;;;;;;;0.77;0.77;;;15.60;99.90;;;;;;5031304;28;20278;-67
2023/08/23 02:03:14;;;;;;;2.05;0.93;;;15.60;99.90;;;;;;5032738;28;20041;-67
2023/08/23 02:05:40;;;;;;;1.10;1.10;;;15.60;99.90;;;;;;5033027;28;20025;-67
2023/08/23 02:08:06;;;;;;;2.13;0.83;;;15.60;99.90;;;;;;5031930;28;20284;-67
2023/08/23 02:10:32;;;;;;;0.75;0.75;;;15.60;99.90;;;;;;5027548;28;20029;-76
2023/08/23 02:12:58;;;;;;;1.13;0.87;;;15.60;99.90;;;;;;5031115;28;20053;-67
2023/08/23 02:15:23;;;;;;;0.40;0.40;;;15.60;99.90;;;;;;5025728;28;20022;-67
2023/08/23 02:17:52;;;;;;;0.57;0.57;;;15.60;99.90;;;;;;5026548;28;20424;-67
2023/08/23 02:20:18;;;;;;;13.48;1.88;;;15.60;99.90;;;;;;5044394;28;20034;-67
2023/08/23 02:22:44;;;;;;;1.83;0.93;;;15.60;99.90;;;;;;5031282;28;20030;-67
2023/08/23 02:25:10;;;;;;;0.33;0.33;;;15.60;99.90;;;;;;5029414;28;20037;-67
2023/08/23 02:27:36;;;;;;;1.37;1.27;;;15.60;99.90;;;;;;5033386;28;20597;-68
2023/08/23 02:30:01;;;;;;;0.43;0.43;;;15.70;99.90;;;;;;5036749;28;20033;-67
2023/08/23 02:32:27;;;;;;;0.40;0.30;;;15.70;99.90;;;;;;5032994;28;20034;-67
2023/08/23 02:34:53;;;;;;;0.63;0.50;;;15.60;99.90;;;;;;5032563;28;20037;-67
2023/08/23 02:37:19;;;;;;;1.93;1.70;;;15.50;99.90;;;;;;5035245;28;20121;-67
2023/08/23 02:39:44;;;;;;;1.20;0.83;;;15.50;99.90;;;;;;5035042;28;20069;-67
2023/08/23 02:42:10;;;;;;;0.50;0.50;;;15.40;99.90;;;;;;5036728;28;20037;-67
2023/08/23 02:44:36;;;;;;;0.30;0.30;;;15.20;99.90;;;;;;5034594;28;20037;-67
2023/08/23 02:47:01;;;;;;;0.63;0.63;;;15.30;99.90;;;;;;5034649;28;20345;-67
2023/08/23 02:49:27;;;;;;;0.40;0.40;;;15.30;99.90;;;;;;5025267;28;20060;-67
2023/08/23 02:51:53;;;;;;;0.20;0.20;;;15.30;99.90;;;;;;5032128;28;20430;-67
2023/08/23 02:54:18;;;;;;;0.30;0.30;;;15.30;99.90;;;;;;5036174;28;20317;-75
2023/08/23 02:56:44;;;;;;;0.63;0.63;;;15.40;99.90;;;;;;5030218;28;20044;-67
2023/08/23 02:59:10;;;;;;;1.50;1.40;;;15.40;99.90;;;;;;5031234;28;20026;-67
2023/08/23 03:01:36;;;;;;;0.33;0.33;;;15.40;99.90;;;;;;5034252;28;20140;-67
2023/08/23 03:04:02;;;;;;;5.13;0.70;;;15.50;99.90;;;;;;5031368;28;20066;-76
2023/08/23 03:06:28;;;;;;;0.32;0.32;;;15.50;99.90;;;;;;5032162;28;20025;-67
2023/08/23 03:08:54;;;;;;;0.77;0.77;;;15.40;99.90;;;;;;5035555;28;20053;-67
2023/08/23 03:11:20;;;;;;;0.40;0.40;;;15.40;99.90;;;;;;5036304;28;20263;-67
2023/08/23 03:13:45;;;;;;;1.33;1.23;;;15.40;99.90;;;;;;5032172;28;20443;-67
2023/08/23 03:16:11;;;;;;;0.77;0.77;;;15.40;99.90;;;;;;5031898;28;20021;-67
2023/08/23 03:18:37;;;;;;;2.10;1.17;;;15.40;99.90;;;;;;5033382;28;20464;-67
2023/08/23 03:21:03;;;;;;;0.20;0.20;;;15.40;99.90;;;;;;5026932;28;20379;-75
2023/08/23 03:23:28;;;;;;;2.17;1.60;;;15.40;99.90;;;;;;5035491;28;20017;-67
2023/08/23 03:25:54;;;;;;;1.37;1.20;;;15.40;99.90;;;;;;5032617;28;20021;-67
2023/08/23 03:28:20;;;;;;;11.57;2.60;;;15.40;99.90;;;;;;5032274;28;20117;-67
2023/08/23 03:30:46;;;;;;;1.53;0.63;;;15.40;99.90;;;;;;5031039;28;20026;-67
2023/08/23 03:33:12;;;;;;;1.25;1.15;;;15.50;99.90;;;;;;5022268;28;20021;-67
2023/08/23 03:35:38;;;;;;;0.88;0.50;;;15.50;99.90;;;;;;5036114;28;20037;-67
2023/08/23 03:38:04;;;;;;;1.47;1.27;;;15.50;99.90;;;;;;5033743;28;20381;-67
2023/08/23 03:40:37;;;;;;;0.35;0.35;;;15.50;99.90;;;;;;5029028;28;20033;-67
2023/08/23 03:43:04;;;;;;;0.50;0.50;;;15.50;99.90;;;;;;5035781;28;20098;-67
2023/08/23 03:45:30;;;;;;;0.47;0.43;;;15.50;99.90;;;;;;5034047;28;20142;-67
2023/08/23 03:47:56;;;;;;;0.28;0.28;;;15.50;99.90;;;;;;5030233;28;20065;-68
2023/08/23 03:50:22;;;;;;;0.47;0.37;;;15.50;99.90;;;;;;5034034;28;20025;-67
2023/08/23 03:52:48;;;;;;;0.40;0.40;;;15.50;99.90;;;;;;5051296;28;20433;-67
2023/08/23 03:55:13;;;;;;;0.70;0.70;;;15.50;99.90;;;;;;5036050;28;20029;-69
2023/08/23 03:57:39;;;;;;;0.60;0.60;;;15.50;99.90;;;;;;5033127;28;20039;-67
2023/08/23 04:00:06;;;;;;;1.80;1.70;;;15.50;99.90;;;;;;5032774;28;20060;-67
2023/08/23 04:02:32;;;;;;;1.45;1.02;;;15.50;99.90;;;;;;5035412;28;20025;-67
2023/08/23 04:04:58;;;;;;;0.88;0.88;;;15.50;99.90;;;;;;5035780;28;20041;-67
2023/08/23 04:07:23;;;;;;;3.40;1.20;;;15.40;99.90;;;;;;5035858;28;20297;-67
2023/08/23 04:09:49;;;;;;;0.50;0.50;;;15.50;99.90;;;;;;5031931;28;20021;-67
2023/08/23 04:12:15;;;;;;;0.50;0.50;;;15.40;99.90;;;;;;5030579;28;20290;-67
2023/08/23 04:14:40;;;;;;;1.03;0.83;;;15.40;99.90;;;;;;5047376;28;20063;-68
2023/08/23 04:17:06;;;;;;;1.10;1.10;;;15.50;99.90;;;;;;5029106;28;20068;-67
2023/08/23 04:19:32;;;;;;;1.30;0.80;;;15.50;99.90;;;;;;5032383;28;20029;-67
2023/08/23 04:21:57;;;;;;;0.20;0.20;;;15.50;99.90;;;;;;5035507;28;20036;-76
2023/08/23 04:24:23;;;;;;;0.97;0.97;;;15.50;99.90;;;;;;5035310;28;20328;-67
2023/08/23 04:26:49;;;;;;;1.43;1.33;;;15.50;99.90;;;;;;5026118;28;20025;-67
2023/08/23 04:29:15;;;;;;;1.03;0.43;;;15.50;99.90;;;;;;5033521;28;20080;-67
2023/08/23 04:31:40;;;;;;;0.20;0.20;;;15.50;99.90;;;;;;5034152;28;20321;-67
2023/08/23 04:34:06;;;;;;;0.83;0.57;;;15.40;99.90;;;;;;5035127;28;20038;-67
2023/08/23 04:36:32;;;;;;;0.30;0.30;;;15.40;99.90;;;;;;5032139;28;20335;-67
2023/08/23 04:38:58;;;;;;;2.27;1.13;;;15.40;99.90;;;;;;5034894;28;20029;-75
2023/08/23 04:41:24;;;;;;;0.33;0.33;;;15.40;99.90;;;;;;5030954;28;20030;-67
2023/08/23 04:43:50;;;;;;;2.00;0.73;;;15.40;99.90;;;;;;5034348;28;20045;-67
2023/08/23 04:46:16;;;;;;;1.70;0.85;;;15.40;99.90;;;;;;5033518;28;20037;-67
2023/08/23 04:48:42;;;;;;;0.80;0.80;;;15.40;99.90;;;;;;5033323;28;20084;-75
2023/08/23 04:51:09;;;;;;;0.50;0.50;;;15.40;99.90;;;;;;5034183;28;20029;-67
2023/08/23 04:53:35;;;;;;;2.83;0.47;;;15.40;99.90;;;;;;5034152;28;20155;-67
2023/08/23 04:56:02;;;;;;;0.20;0.20;;;15.40;99.90;;;;;;5031413;28;20104;-74
2023/08/23 04:58:31;;;;;;;0.93;0.40;;;15.40;99.90;;;;;;5034916;28;20364;-67
2023/08/23 05:01:04;;;;;;;0.43;0.43;;;15.40;99.90;;;;;;5031616;28;20030;-66
2023/08/23 05:03:34;;;;;;;0.77;0.77;;;15.40;99.90;;;;;;5027049;28;20033;-72
2023/08/23 05:06:01;;;;;;;0.95;0.40;;;15.40;99.90;;;;;;5030691;28;20101;-67
2023/08/23 05:08:28;;;;;;;0.40;0.35;;;15.40;99.90;;;;;;5030226;28;20053;-67
2023/08/23 05:10:55;;;;;;;1.98;1.23;;;15.40;99.90;;;;;;5031654;28;20092;-67
2023/08/23 05:13:22;;;;;;;2.05;1.27;;;15.30;99.90;;;;;;5027096;28;20021;-68
2023/08/23 05:15:52;;;;;;;1.17;1.17;;;15.30;99.90;;;;;;5027203;28;20034;-67
2023/08/23 05:18:18;;;;;;;1.48;1.40;;;15.30;99.90;;;;;;5030704;28;20033;-67
2023/08/23 05:20:45;;;;;;;0.40;0.40;;;15.30;99.90;;;;;;5027011;28;20025;-68
2023/08/23 05:23:11;;;;;;;0.85;0.85;;;15.30;99.90;;;;;;5028385;28;20089;-67
2023/08/23 05:25:37;;;;;;;0.68;0.68;;;15.40;99.90;;;;;;5026773;28;20417;-67
2023/08/23 05:28:03;;;;;;;3.23;1.50;;;15.40;99.90;;;;;;5030650;28;20100;-67
2023/08/23 05:30:31;;;;;;;0.75;0.75;;;15.50;99.90;;;;;;5026561;28;20325;-67
2023/08/23 05:32:56;;;;;;;0.65;0.65;;;15.50;99.90;;;;;;5027095;28;20025;-67
2023/08/23 05:35:22;;;;;;;2.17;1.53;;;15.60;99.90;;;;;;5032685;28;20033;-67
2023/08/23 05:37:48;;;;;;;1.00;1.00;;;15.80;99.90;;;;;;5030859;28;20030;-67
2023/08/23 05:40:14;;;;;;;12.87;2.33;;;15.80;99.90;;;;;;5033534;28;20116;-67
2023/08/23 05:42:40;;;;;;;0.63;0.60;;;15.80;99.90;;;;;;5030828;28;20444;-67
2023/08/23 05:45:06;;;;;;;1.07;1.07;;;15.80;99.90;;;;;;5025869;28;20286;-67
2023/08/23 05:47:33;;;;;;;1.83;1.38;;;15.80;99.90;;;;;;5034423;28;20033;-75
2023/08/23 05:49:59;;;;;;;2.03;0.93;;;15.90;99.90;;;;;;5047201;28;20328;-68
2023/08/23 05:52:24;;;;;;;0.97;0.97;;;15.90;99.90;;;;;;5029503;28;20027;-68
2023/08/23 05:54:50;;;;;;;0.90;0.90;;;16.00;99.90;;;;;;5019590;28;20321;-75
2023/08/23 05:57:16;;;;;;;1.90;1.80;;;16.20;99.90;;;;;;5023955;28;20033;-67
2023/08/23 05:59:42;;;;;;;3.27;0.80;;;16.30;99.90;;;;;;5031578;28;20026;-67
2023/08/23 06:02:08;;;;;;;2.53;1.00;;;16.40;99.90;;;;;;5033166;28;20321;-68
2023/08/23 06:04:34;;;;;;;0.70;0.70;;;16.50;99.90;;;;;;5027205;28;20033;-68
2023/08/23 06:07:00;;;;;;;1.23;1.13;;;16.50;99.90;;;;;;5030575;28;20061;-68
2023/08/23 06:09:26;;;;;;;0.47;0.47;;;16.60;99.90;;;;;;5029257;28;20068;-68
2023/08/23 06:11:52;;;;;;;2.63;1.90;;;16.60;99.90;;;;;;5034376;28;20475;-67
2023/08/23 06:14:19;;;;;;;0.93;0.93;;;16.70;99.90;;;;;;5034337;28;20035;-68
2023/08/23 06:16:46;;;;;;;0.80;0.60;;;16.80;99.90;;;;;;5042724;28;20025;-68
2023/08/23 06:19:11;;;;;;;1.58;1.55;;;16.90;99.90;;;;;;5046120;28;20424;-68
2023/08/23 06:21:39;;;;;;;3.57;1.57;;;16.90;99.90;;;;;;5047471;28;20127;-68
2023/08/23 06:24:05;;;;;;;0.35;0.35;;;17.00;99.90;;;;;;5041862;28;20371;-68
2023/08/23 06:26:31;;;;;;;1.93;0.77;;;17.10;99.90;;;;;;5034037;28;20103;-68
2023/08/23 06:28:57;;;;;;;0.93;0.93;;;17.10;99.90;;;;;;5049712;28;20029;-68
2023/08/23 06:31:23;;;;;;;0.87;0.87;;;17.20;99.90;;;;;;5041059;28;20365;-68
2023/08/23 06:33:48;;;;;;;9.90;2.37;;;17.30;99.90;;;;;;5053028;28;20032;-69
2023/08/23 06:36:14;;;;;;;4.17;2.03;;;17.40;99.90;;;;;;5049914;28;20035;-69
2023/08/23 06:38:44;;;;;;;11.07;3.70;;;17.40;99.90;;;;;;5047395;28;20050;-76
2023/08/23 06:41:10;;;;;;;2.05;1.33;;;17.40;99.90;;;;;;5048550;28;20471;-69
2023/08/23 06:43:35;;;;;;;1.67;1.10;;;17.40;99.90;;;;;;5041424;28;20167;-68
2023/08/23 06:46:01;;;;;;;1.40;1.40;;;17.50;99.90;;;;;;5048250;28;20090;-69
2023/08/23 06:48:27;;;;;;;0.63;0.63;;;17.60;99.90;;;;;;5048392;28;20068;-69
2023/08/23 06:50:54;;;;;;;5.43;1.95;;;17.80;99.90;;;;;;5049035;28;20100;-69
2023/08/23 06:53:20;;;;;;;9.15;2.75;;;17.80;99.90;;;;;;5043276;28;20510;-68
2023/08/23 06:55:46;;;;;;;1.45;1.38;;;17.90;99.90;;;;;;5046290;28;20439;-69
2023/08/23 06:58:12;;;;;;;0.77;0.77;;;18.00;99.90;;;;;;5043237;28;20043;-69
2023/08/23 07:00:38;;;;;;;2.78;0.85;;;18.10;99.90;;;;;;5037100;28;20364;-69
2023/08/23 07:03:04;;;;;;;0.80;0.80;;;18.10;99.90;;;;;;5038902;28;20091;-68
2023/08/23 07:05:33;;;;;;;1.58;1.45;;;18.30;99.90;;;;;;5039948;28;20084;-69
2023/08/23 07:07:59;;;;;;;0.95;0.95;;;18.30;99.90;;;;;;5038877;28;20106;-68
2023/08/23 07:10:25;;;;;;;1.33;0.83;;;18.40;99.90;;;;;;5040691;28;20073;-69
2023/08/23 07:12:51;;;;;;;0.80;0.80;;;18.50;99.90;;;;;;5034992;28;20263;-77
2023/08/23 07:15:17;;;;;;;0.40;0.40;;;18.60;99.90;;;;;;5045418;28;20107;-69
2023/08/23 07:17:43;;;;;;;2.40;1.73;;;18.70;99.90;;;;;;5026976;28;20030;-69
2023/08/23 07:20:12;;;;;;;1.40;1.33;;;18.90;99.90;;;;;;5047785;28;20029;-68
2023/08/23 07:22:38;;;;;;;1.10;1.10;;;19.10;99.90;;;;;;5031584;28;20282;-69
2023/08/23 07:25:04;;;;;;;1.65;1.55;;;19.20;99.90;;;;;;5028465;28;20072;-68
2023/08/23 07:27:29;;;;;;;3.03;1.08;;;19.40;99.90;;;;;;5049398;28;20029;-69
2023/08/23 07:29:55;;;;;;;1.67;1.57;;;19.40;99.90;;;;;;5033202;28;20117;-75
2023/08/23 07:32:21;;;;;;;0.93;0.93;;;19.50;99.90;;;;;;5030717;28;20459;-69
2023/08/23 07:34:46;;;;;;;2.53;2.33;;;19.70;99.90;;;;;;5038527;28;20361;-68
2023/08/23 07:37:14;;;;;;;3.37;3.07;;;19.80;99.90;;;;;;5036802;28;20033;-68
2023/08/23 07:39:40;;;;;;;3.20;3.00;;;19.80;99.90;;;;;;5031910;28;20417;-69
2023/08/23 07:42:05;;;;;;;1.93;1.20;;;19.90;99.90;;;;;;5024587;28;20416;-69
2023/08/23 07:44:31;;;;;;;1.80;1.70;;;19.80;99.90;;;;;;5037736;28;20029;-68
2023/08/23 07:46:57;;;;;;;4.17;2.57;;;19.80;99.90;;;;;;5028275;28;20293;-68
2023/08/23 07:49:23;;;;;;;2.33;2.20;;;19.80;99.90;;;;;;5033981;28;20064;-69
2023/08/23 07:51:49;;;;;;;9.90;2.90;;;19.90;99.90;;;;;;5034804;28;20046;-68
2023/08/23 07:54:14;;;;;;;2.37;1.73;;;20.00;99.90;;;;;;5032381;28;20309;-69
2023/08/23 07:56:41;;;;;;;1.10;1.10;;;20.00;99.90;;;;;;5024760;28;20287;-77
2023/08/23 07:59:07;;;;;;;1.60;1.55;;;20.10;99.90;;;;;;5040476;28;20040;-69
2023/08/23 08:01:32;;;;;;;1.80;1.70;;;20.20;99.90;;;;;;5028365;28;20082;-69
2023/08/23 08:03:58;;;;;;;1.90;1.80;;;20.20;99.90;;;;;;5029628;28;20038;-68
2023/08/23 08:06:24;;;;;;;8.67;3.23;;;20.20;99.90;;;;;;5039188;28;20025;-70
2023/08/23 08:08:50;;;;;;;4.03;3.08;;;20.20;99.90;;;;;;5046844;28;20021;-69
2023/08/23 08:11:16;;;;;;;2.67;2.47;;;20.20;99.90;;;;;;5039845;28;20030;-74
2023/08/23 08:13:42;;;;;;;1.10;1.10;;;20.30;99.90;;;;;;5042687;28;20311;-76
2023/08/23 08:16:13;;;;;;;4.28;2.08;;;20.40;99.90;;;;;;5031613;28;20025;-69
2023/08/23 08:18:40;;;;;;;2.05;1.95;;;20.60;99.90;;;;;;5037611;28;20024;-69
2023/08/23 08:21:06;;;;;;;2.47;1.85;;;20.70;99.90;;;;;;5036051;28;20030;-69
2023/08/23 08:23:32;;;;;;;4.05;2.90;;;20.80;99.90;;;;;;5036364;28;20017;-69
2023/08/23 08:25:58;;;;;;;5.95;2.95;;;20.90;99.90;;;;;;5038278;28;20385;-76
2023/08/23 08:28:26;;;;;;;1.90;1.80;;;20.90;99.90;;;;;;5039320;28;20319;-75
2023/08/23 08:30:52;;;;;;;3.63;2.33;;;20.90;99.90;;;;;;5032957;28;20053;-77
2023/08/23 08:33:18;;;;;;;2.80;2.42;;;20.90;99.90;;;;;;5038856;28;20028;-69
2023/08/23 08:35:44;;;;;;;5.65;3.35;;;20.90;99.90;;;;;;5036356;28;20044;-69
2023/08/23 08:38:10;;;;;;;2.17;1.97;;;20.90;99.90;;;;;;5018115;28;20029;-68
2023/08/23 08:40:39;;;;;;;2.65;2.30;;;20.90;99.90;;;;;;5036293;28;20267;-69
2023/08/23 08:43:05;;;;;;;4.55;2.15;;;20.90;99.90;;;;;;5036698;28;20319;-70
2023/08/23 08:45:31;;;;;;;;;;;21.00;99.90;;;;;;5048049;28;20319;-68
2023/08/23 08:47:58;;;;;;;2.42;2.28;;;21.10;99.90;;;;;;5046203;28;19917;-70
2023/08/23 08:50:26;;;;;;;;;;;21.20;99.90;;;;;;5049411;28;20424;-69
2023/08/23 08:52:53;;;;;;;1.70;1.63;;;21.30;99.90;;;;;;5044880;28;19952;-68
2023/08/23 08:55:21;;;;;;;5.18;2.88;;;21.40;99.90;;;;;;5046802;28;20028;-76
2023/08/23 08:57:52;;;;;;;2.05;1.88;;;21.60;99.90;;;;;;5049334;28;20031;-69
2023/08/23 09:00:22;;;;;;;3.42;2.22;;;21.80;99.90;;;;;;5053347;28;20033;-69
2023/08/23 09:02:51;;;;;;;6.35;3.47;;;22.00;99.90;;;;;;5045196;28;20419;-69
2023/08/23 09:05:20;;;;;;;1.20;1.17;;;21.90;99.90;;;;;;5049739;28;20086;-69
2023/08/23 09:07:46;;;;;;;12.60;2.28;;;21.80;99.90;;;;;;5051283;28;20036;-68
2023/08/23 09:10:13;;;;;;;2.72;2.08;;;21.90;99.90;;;;;;5047692;28;20055;-69
2023/08/23 09:12:39;;;;;;;3.30;2.47;;;22.00;99.90;;;;;;5024872;28;20029;-70
2023/08/23 09:15:05;;;;;;;1.63;1.60;;;22.30;99.90;;;;;;5035046;28;20033;-69
2023/08/23 09:17:33;;;;;;;1.95;1.85;;;22.50;99.90;;;;;;5033178;28;20064;-76
2023/08/23 09:19:59;;;;;;;8.77;2.85;;;22.70;99.90;;;;;;5045214;28;20099;-70
2023/08/23 09:22:25;;;;;;;1.55;1.52;;;22.90;99.90;;;;;;5050160;28;20033;-69
2023/08/23 09:24:52;;;;;;;2.55;2.35;;;23.00;99.90;;;;;;5041672;28;20032;-69
2023/08/23 09:27:20;;;;;;;;;;;23.00;99.90;;;;;;5046898;28;20032;-69
2023/08/23 09:29:46;;;;;;;2.58;1.90;;;23.00;99.90;;;;;;5048320;28;19920;-70
2023/08/23 09:32:12;;;;;;;1.92;1.60;;;23.00;99.90;;;;;;5043343;28;20073;-69
2023/08/23 09:34:38;;;;;;;3.30;2.92;;;23.10;99.90;;;;;;5043220;28;20032;-69
2023/08/23 09:37:07;;;;;;;2.45;2.30;;;23.30;99.90;;;;;;5037207;28;20034;-72
2023/08/23 09:39:34;;;;;;;1.42;1.42;;;23.40;99.90;;;;;;5036235;28;20432;-76
2023/08/23 09:42:05;;;;;;;2.83;2.03;;;23.60;99.90;;;;;;5042050;28;20049;-69
2023/08/23 09:44:39;;;;;;;2.65;2.28;;;23.70;99.90;;;;;;5036214;28;20025;-77
2023/08/23 09:47:09;;;;;;;3.83;2.72;;;23.90;99.90;;;;;;5039315;28;20041;-70
2023/08/23 09:49:35;;;;;;;1.90;1.80;;;24.00;99.90;;;;;;5029319;28;20025;-70
2023/08/23 09:52:02;;;;;;;1.70;1.60;;;24.00;99.90;;;;;;5048036;28;20029;-78
2023/08/23 09:54:50;;;;;;;2.40;2.30;;;24.10;99.90;;;;;;5035985;28;20109;-70
2023/08/23 09:57:18;;;;;;;2.50;2.30;;;24.10;99.90;;;;;;5033778;28;20372;-69
2023/08/23 09:59:45;;;;;;;1.98;1.88;;;24.20;99.90;;;;;;5042005;28;20040;-70
2023/08/23 10:02:11;;;;;;;;;;;24.30;99.90;;;;;;5047772;28;20372;-69
2023/08/23 10:04:41;;;;;;;1.25;1.23;;;24.40;99.90;;;;;;5034808;28;19955;-69
2023/08/23 10:07:12;;;;;;;2.10;1.98;;;24.40;99.90;;;;;;5029718;28;20128;-69
2023/08/23 10:09:40;;;;;;;4.07;2.75;;;24.50;99.90;;;;;;5045932;28;20025;-70
2023/08/23 10:12:08;;;;;;;3.90;2.25;;;24.60;99.90;;;;;;5031916;28;20068;-70
2023/08/23 10:14:37;;;;;;;3.40;3.13;;;24.70;99.90;;;;;;5030352;28;20030;-70
2023/08/23 10:17:06;;;;;;;3.13;2.75;;;24.80;99.90;;;;;;5032787;28;20040;-77
2023/08/23 10:19:32;;;;;;;2.88;2.75;;;24.90;99.90;;;;;;5030176;28;20026;-76
2023/08/23 10:21:58;;;;;;;;;;;25.00;99.90;;;;;;5042524;28;20163;-70
2023/08/23 10:24:34;;;;;;;2.50;2.08;;;25.00;99.90;;;;;;5028907;28;20007;-70
2023/08/23 10:27:08;;;;;;;0.98;0.98;;;25.10;99.90;;;;;;5041451;28;20305;-75
2023/08/23 10:29:37;;;;;;;2.13;1.40;;;25.20;99.90;;;;;;5029439;28;20034;-73
2023/08/23 10:32:13;;;;;;;1.30;1.27;;;25.30;99.90;;;;;;5036944;28;20029;-76
2023/08/23 10:34:43;;;;;;;0.98;0.98;;;25.40;99.90;;;;;;5029914;28;20014;-76
2023/08/23 10:37:19;;;;;;;2.05;1.85;;;25.50;99.90;;;;;;5029056;28;20033;-70
2023/08/23 10:39:49;;;;;;;3.47;1.83;;;25.50;99.90;;;;;;5029231;28;20469;-70
2023/08/23 10:42:16;;;;;;;0.90;0.90;;;25.60;99.90;;;;;;5032288;28;20042;-70
2023/08/23 10:45:05;;;;;;;0.73;0.73;;;25.70;99.90;;;;;;5024382;28;20037;-76
2023/08/23 10:47:36;;;;;;;2.92;1.52;;;25.80;99.90;;;;;;5028616;28;20037;-75
2023/08/23 10:50:04;;;;;;;1.15;1.00;;;25.80;99.90;;;;;;5037809;28;20021;-69
2023/08/23 10:52:33;;;;;;;1.38;1.33;;;25.80;99.90;;;;;;5046283;28;20285;-70
2023/08/23 10:55:00;;;;;;;1.55;0.98;;;25.70;99.90;;;;;;5036423;28;20029;-71
2023/08/23 10:57:25;;;;;;;2.55;0.82;;;25.70;99.90;;;;;;5036355;28;20364;-71
2023/08/23 10:59:51;;;;;;;2.75;1.67;;;25.60;99.90;;;;;;5038650;28;20108;-70
2023/08/23 11:02:17;;;;;;;0.40;0.40;;;25.50;99.90;;;;;;5036708;28;20061;-70
2023/08/23 11:04:43;;;;;;;0.65;0.65;;;25.40;99.90;;;;;;5027342;28;20031;-76
2023/08/23 11:07:09;;;;;;;0.52;0.52;;;25.40;99.90;;;;;;5049996;28;20025;-69
2023/08/23 11:09:35;;;;;;;1.33;1.13;;;25.50;99.90;;;;;;5034412;28;20018;-70
2023/08/23 11:12:04;;;;;;;0.60;0.60;;;25.60;99.90;;;;;;5028676;28;20026;-77
2023/08/23 11:14:30;;;;;;;2.53;1.02;;;25.80;99.90;;;;;;5030051;28;20104;-70
2023/08/23 11:16:56;;;;;;;0.70;0.70;;;25.90;99.90;;;;;;5042764;28;20039;-70
2023/08/23 11:19:22;;;;;;;5.15;1.83;;;26.00;99.90;;;;;;5030553;28;20064;-70
2023/08/23 11:21:48;;;;;;;1.38;1.38;;;26.00;99.90;;;;;;5031272;28;20026;-77
2023/08/23 11:24:14;;;;;;;1.17;1.15;;;25.80;99.90;;;;;;5035789;28;20041;-69
2023/08/23 11:26:40;;;;;;;3.05;2.33;;;25.80;99.90;;;;;;5041818;28;20025;-70
2023/08/23 11:29:06;;;;;;;0.88;0.88;;;25.90;99.90;;;;;;5034655;28;20064;-69
2023/08/23 11:31:35;;;;;;;0.65;0.65;;;26.00;99.90;;;;;;5037448;28;20049;-71
2023/08/23 11:34:08;;;;;;;0.73;0.73;;;26.30;99.90;;;;;;5030228;28;20034;-70
2023/08/23 11:36:37;;;;;;;1.70;1.60;;;26.30;99.90;;;;;;5031267;28;20028;-70
2023/08/23 11:39:06;;;;;;;1.08;1.05;;;26.30;99.90;;;;;;5041149;28;20408;-71
2023/08/23 11:41:33;;;;;;;0.63;0.63;;;26.40;99.90;;;;;;5030260;28;20029;-70
2023/08/23 11:44:09;;;;;;;0.55;0.55;;;26.50;99.90;;;;;;5041363;28;20120;-70
2023/08/23 11:46:39;;;;;;;1.57;1.47;;;26.60;99.90;;;;;;5050559;28;20021;-69
2023/08/23 11:49:09;;;;;;;2.60;1.33;;;26.70;99.90;;;;;;5041403;28;20020;-70
2023/08/23 11:51:44;;;;;;;0.68;0.40;;;26.70;99.90;;;;;;5038245;28;20061;-74
2023/08/23 11:54:10;;;;;;;0.98;0.98;;;26.80;99.90;;;;;;5039436;28;20060;-70
2023/08/23 11:56:39;;;;;;;1.20;1.10;;;26.70;99.90;;;;;;5028418;28;20489;-69
2023/08/23 11:59:05;;;;;;;0.77;0.77;;;26.70;99.90;;;;;;5028458;28;20614;-70
2023/08/23 12:01:31;;;;;;;0.70;0.70;;;26.80;99.90;;;;;;5035662;28;20029;-70
2023/08/23 12:03:57;;;;;;;0.40;0.40;;;26.90;99.90;;;;;;5035821;28;20034;-70
2023/08/23 12:06:23;;;;;;;2.03;1.02;;;27.00;99.90;;;;;;5034004;28;20431;-69
2023/08/23 12:08:49;;;;;;;0.20;0.20;;;27.10;99.90;;;;;;5032542;28;20179;-78
2023/08/23 12:11:15;;;;;;;0.47;0.45;;;27.10;99.90;;;;;;5035385;28;20463;-71
2023/08/23 12:13:41;;;;;;;;;;;27.10;99.90;;;;;;5034340;28;20293;-70
2023/08/23 12:16:07;;;;;;;;;;;27.10;99.90;;;;;;5033412;28;19916;-70
2023/08/23 12:18:34;;;;;;;0.40;0.40;;;27.20;99.90;;;;;;5031284;28;19917;-70
2023/08/23 12:20:59;;;;;;;;;;;27.30;99.90;;;;;;5035875;28;20026;-70
2023/08/23 12:23:25;;;;;;;;;;;27.40;99.90;;;;;;5031374;28;19971;-70
2023/08/23 12:25:51;;;;;;;0.38;0.38;;;27.20;99.90;;;;;;5033073;28;19913;-70
2023/08/23 12:28:17;;;;;;;0.45;0.45;;;26.90;99.90;;;;;;5031408;28;20040;-70
2023/08/23 12:30:43;;;;;;;0.65;0.60;;;26.80;99.90;;;;;;5028156;28;20029;-69
2023/08/23 12:33:09;;;;;;;0.20;0.20;;;26.80;99.90;;;;;;5029538;28;20108;-70
2023/08/23 12:35:35;;;;;;;0.03;0.03;;;26.60;99.90;;;;;;5034868;28;20098;-70
2023/08/23 12:38:01;;;;;;;0.00;0.00;;;26.50;99.90;;;;;;5035105;28;20057;-70
2023/08/23 12:40:26;;;;;;;0.08;0.08;;;26.40;99.90;;;;;;5034528;28;20033;-70
2023/08/23 12:42:52;;;;;;;0.32;0.32;;;26.50;99.90;;;;;;5035267;28;20116;-69
2023/08/23 12:45:18;;;;;;;0.00;0.00;;;26.60;99.90;;;;;;5030676;28;20026;-68
2023/08/23 12:47:45;;;;;;;0.20;0.10;;;26.70;99.90;;;;;;5030434;28;20355;-70